createdAt,value
2023-03-26T00:18:21.589Z,0.52
2023-03-26T00:30:22.111Z,0.53
2023-03-26T00:42:22.650Z,0.54
2023-03-26T01:06:23.629Z,0.51
2023-03-26T01:14:24.059Z,0.53
2023-03-26T01:22:24.308Z,0.52
2023-03-26T01:34:24.806Z,0.52
2023-03-26T03:06:29.071Z,0.51
2023-03-26T03:10:29.254Z,0.51
2023-03-26T03:14:29.436Z,0.51
2023-03-26T03:18:29.647Z,0.52
2023-03-26T03:22:29.906Z,0.51
2023-03-26T03:26:30.205Z,0.51
2023-03-26T03:30:30.283Z,0.51
2023-03-26T03:34:30.470Z,0.51
2023-03-26T03:38:30.675Z,0.51
2023-03-26T03:42:30.849Z,0.51
2023-03-26T03:46:31.077Z,0.51
2023-03-26T03:50:33.064Z,0.50
2023-03-26T03:54:31.214Z,0.51
2023-03-26T03:58:31.222Z,0.50
2023-03-26T04:02:31.188Z,0.51
2023-03-26T04:06:31.098Z,0.51
2023-03-26T04:10:31.042Z,0.51
2023-03-26T04:14:31.005Z,0.52
2023-03-26T04:18:30.965Z,0.51
2023-03-26T04:22:30.936Z,0.51
2023-03-26T04:26:30.938Z,0.50
2023-03-26T04:30:31.008Z,0.52
2023-03-26T04:34:30.969Z,0.53
2023-03-26T04:38:30.914Z,0.51
2023-03-26T06:38:29.765Z,0.52
2023-03-26T08:42:30.758Z,0.52
2023-03-26T08:46:30.859Z,0.52
2023-03-26T08:50:30.914Z,0.53
2023-03-26T08:54:30.960Z,0.52
2023-03-26T08:58:31.063Z,0.54
2023-03-26T09:02:31.190Z,0.52
2023-03-26T09:06:31.263Z,0.53
2023-03-26T09:10:31.356Z,0.53
2023-03-26T09:14:31.410Z,0.53
2023-03-26T09:18:31.485Z,0.53
2023-03-26T09:22:31.523Z,0.53
2023-03-26T09:26:31.564Z,0.52
2023-03-26T09:30:31.628Z,0.52
2023-03-26T09:34:31.688Z,0.52
2023-03-26T09:38:31.754Z,0.52
2023-03-26T09:42:31.797Z,0.53
2023-03-26T09:46:31.838Z,0.52
2023-03-26T09:50:31.881Z,0.52
2023-03-26T09:54:31.949Z,0.52
2023-03-26T09:58:32.031Z,0.52
2023-03-26T10:02:46.337Z,0.52
2023-03-26T10:06:33.048Z,0.53
2023-03-26T10:10:31.973Z,0.52
2023-03-26T10:14:31.939Z,0.53
2023-03-26T10:18:32.179Z,0.53
2023-03-26T10:22:32.164Z,0.52
2023-03-26T10:26:32.306Z,0.53
2023-03-26T10:30:32.426Z,0.52
2023-03-26T10:34:32.508Z,0.53
2023-03-26T10:38:32.626Z,0.53
2023-03-26T10:42:32.728Z,0.53
2023-03-26T10:46:32.901Z,0.53
2023-03-26T10:50:32.932Z,0.54
2023-03-26T10:54:33.065Z,0.53
2023-03-26T10:58:48.685Z,0.53
2023-03-26T11:02:34.120Z,0.53
2023-03-26T11:06:33.002Z,0.53
2023-03-26T11:10:32.932Z,0.53
2023-03-26T11:14:35.291Z,0.54
2023-03-26T11:18:32.869Z,0.53
2023-03-26T11:22:32.902Z,0.53
2023-03-26T11:26:32.728Z,0.53
2023-03-26T11:30:32.677Z,0.53
2023-03-26T11:34:32.606Z,0.52
2023-03-26T11:38:32.543Z,0.52
2023-03-26T11:42:32.476Z,0.52
2023-03-26T11:46:33.715Z,0.52
2023-03-26T11:50:32.330Z,0.53
2023-03-26T11:54:32.276Z,0.53
2023-03-26T11:58:32.230Z,0.53
2023-03-26T12:02:32.360Z,0.53
2023-03-26T12:06:32.130Z,0.52
2023-03-26T12:10:32.254Z,0.53
2023-03-26T12:14:32.395Z,0.53
2023-03-26T12:18:32.568Z,0.53
2023-03-26T12:22:32.720Z,0.53
2023-03-26T12:26:32.884Z,0.53
2023-03-26T12:30:33.047Z,0.53
2023-03-26T12:34:33.220Z,0.53
2023-03-26T12:38:33.513Z,0.52
2023-03-26T12:44:51.502Z,0.52
2023-03-26T12:47:59.070Z,0.52
2023-03-26T12:50:35.645Z,0.53
2023-03-26T12:54:33.540Z,0.53
2023-03-26T12:58:33.721Z,0.52
2023-03-26T13:02:33.744Z,0.52
2023-03-26T13:06:33.588Z,0.52
2023-03-26T13:10:34.544Z,0.52
2023-03-26T13:14:33.465Z,0.52
2023-03-26T13:18:33.649Z,0.52
2023-03-26T13:22:33.597Z,0.51
2023-03-26T13:26:33.519Z,0.51
2023-03-26T13:30:33.507Z,0.51
2023-03-26T13:34:33.351Z,0.51
2023-03-26T13:38:33.279Z,0.52
2023-03-26T13:42:33.204Z,0.52
2023-03-26T13:46:33.157Z,0.51
2023-03-26T13:50:33.059Z,0.51
2023-03-26T13:54:32.995Z,0.51
2023-03-26T13:58:34.773Z,0.52
2023-03-26T14:02:32.913Z,0.52
2023-03-26T14:06:32.809Z,0.51
2023-03-26T14:10:32.724Z,0.51
2023-03-26T14:14:32.655Z,0.52
2023-03-26T14:18:32.595Z,0.53
2023-03-26T14:22:32.500Z,0.52
2023-03-26T14:26:32.429Z,0.52
2023-03-26T14:30:32.372Z,0.52
2023-03-26T14:34:32.319Z,0.53
2023-03-26T14:38:32.310Z,0.53
2023-03-26T14:42:32.270Z,0.52
2023-03-26T14:46:32.330Z,0.53
2023-03-26T14:50:32.165Z,0.53
2023-03-26T14:54:32.122Z,0.53
2023-03-26T14:58:32.069Z,0.54
2023-03-26T15:02:32.045Z,0.54
2023-03-26T15:06:31.932Z,0.54
2023-03-26T15:10:31.866Z,0.54
2023-03-26T15:14:31.799Z,0.53
2023-03-26T15:18:31.736Z,0.54
2023-03-26T15:22:31.655Z,0.54
2023-03-26T15:26:31.594Z,0.54
2023-03-26T15:30:31.510Z,0.54
2023-03-26T15:34:31.442Z,0.53
2023-03-26T15:38:31.360Z,0.54
2023-03-26T15:42:31.270Z,0.55
2023-03-26T15:46:31.233Z,0.55
2023-03-26T15:50:31.099Z,0.55
2023-03-26T15:54:31.560Z,0.54
2023-03-26T15:58:30.906Z,0.55
2023-03-26T16:02:30.885Z,0.53
2023-03-26T16:06:30.834Z,0.53
2023-03-26T16:10:30.696Z,0.53
2023-03-26T16:14:30.608Z,0.54
2023-03-26T16:18:30.542Z,0.54
2023-03-26T16:22:30.536Z,0.55
2023-03-26T16:26:30.402Z,0.54
2023-03-26T16:30:30.404Z,0.56
2023-03-26T16:34:30.249Z,0.55
2023-03-26T16:38:30.166Z,0.56
2023-03-26T16:42:30.347Z,0.54
2023-03-26T16:46:30.522Z,0.55
2023-03-26T16:50:30.666Z,0.55
2023-03-26T16:54:30.824Z,0.54
2023-03-26T16:58:30.813Z,0.54
2023-03-26T17:02:30.746Z,0.56
2023-03-26T17:06:30.608Z,0.54
2023-03-26T17:10:30.513Z,0.55
2023-03-26T17:14:30.428Z,0.56
2023-03-26T17:18:30.385Z,0.56
2023-03-26T17:22:30.282Z,0.55
2023-03-26T17:26:30.210Z,0.56
2023-03-26T17:30:30.126Z,0.56
2023-03-26T17:34:30.049Z,0.56
2023-03-26T17:38:30.126Z,0.55
2023-03-26T17:42:30.069Z,0.56
2023-03-26T17:46:30.057Z,0.55
2023-03-26T17:50:29.986Z,0.56
2023-03-26T17:54:29.914Z,0.55
2023-03-26T17:58:29.850Z,0.55
2023-03-26T18:02:29.851Z,0.55
2023-03-26T18:06:29.725Z,0.55
2023-03-26T18:10:29.671Z,0.55
2023-03-26T18:14:29.613Z,0.56
2023-03-26T18:18:29.535Z,0.55
2023-03-26T18:22:29.479Z,0.55
2023-03-26T18:26:29.606Z,0.57
2023-03-26T18:30:29.710Z,0.56
2023-03-26T18:34:29.899Z,0.55
2023-03-26T18:38:38.071Z,0.57
2023-03-26T18:42:30.971Z,0.56
2023-03-26T18:46:29.906Z,0.57
2023-03-26T18:50:30.030Z,0.58
2023-03-26T18:54:30.144Z,0.57
2023-03-26T18:58:30.227Z,0.57
2023-03-26T19:02:30.606Z,0.57
2023-03-26T19:06:30.327Z,0.57
2023-03-26T19:10:30.278Z,0.58
2023-03-26T19:14:30.216Z,0.56
2023-03-26T19:18:30.132Z,0.57
2023-03-26T19:22:30.060Z,0.57
2023-03-26T19:26:29.998Z,0.58
2023-03-26T19:30:30.019Z,0.57
2023-03-26T19:34:29.878Z,0.57
2023-03-26T19:38:29.813Z,0.56
2023-03-26T19:42:43.062Z,0.57
2023-03-26T19:46:30.724Z,0.57
2023-03-26T19:50:29.651Z,0.55
2023-03-26T19:54:29.590Z,0.56
2023-03-26T19:58:29.683Z,0.57
2023-03-26T20:02:29.836Z,0.57
2023-03-26T20:06:42.345Z,0.56
2023-03-26T20:10:30.763Z,0.56
2023-03-26T20:14:29.713Z,0.56
2023-03-26T20:18:29.736Z,0.56
2023-03-26T20:22:29.869Z,0.56
2023-03-26T20:26:30.063Z,0.56
2023-03-26T20:34:30.144Z,0.55
2023-03-26T20:38:39.134Z,0.57
2023-03-26T20:42:30.973Z,0.57
2023-03-26T20:46:30.969Z,0.57
2023-03-26T20:50:31.481Z,0.56
2023-03-26T20:54:29.774Z,0.56
2023-03-26T20:58:31.005Z,0.56
2023-03-26T21:02:29.808Z,0.56
2023-03-26T21:06:29.727Z,0.57
2023-03-26T21:10:29.785Z,0.57
2023-03-26T21:14:29.731Z,0.57
2023-03-26T21:18:29.713Z,0.56
2023-03-26T21:22:29.731Z,0.57
2023-03-26T21:26:29.756Z,0.56
2023-03-26T21:30:29.751Z,0.56
2023-03-26T21:34:29.712Z,0.56
2023-03-26T21:38:29.766Z,0.56
2023-03-26T21:42:29.813Z,0.57
2023-03-26T21:46:29.841Z,0.56
2023-03-26T21:50:29.792Z,0.56
2023-03-26T21:54:29.753Z,0.57
2023-03-26T21:58:29.726Z,0.56
2023-03-26T22:02:29.817Z,0.57
2023-03-26T22:06:29.783Z,0.56
2023-03-26T22:10:29.868Z,0.57
2023-03-26T22:14:29.889Z,0.57
2023-03-26T22:18:29.934Z,0.57
2023-03-26T22:22:29.946Z,0.56
2023-03-26T22:26:30.001Z,0.56
2023-03-26T22:30:30.132Z,0.56
2023-03-26T22:34:30.245Z,0.58
2023-03-26T22:38:30.369Z,0.56
2023-03-26T22:42:30.531Z,0.57
2023-03-26T22:46:30.612Z,0.56
2023-03-26T22:50:30.746Z,0.54
2023-03-26T22:54:30.862Z,0.54
2023-03-26T22:58:31.020Z,0.56
2023-03-26T23:02:31.036Z,0.57
2023-03-26T23:06:31.055Z,0.56
2023-03-26T23:10:31.149Z,0.56
2023-03-26T23:14:31.131Z,0.55
2023-03-26T23:18:31.204Z,0.56
2023-03-26T23:22:31.209Z,0.56
2023-03-26T23:26:37.761Z,0.56
2023-03-26T23:30:32.183Z,0.56
2023-03-26T23:34:31.114Z,0.56
2023-03-26T23:38:43.788Z,0.55
2023-03-26T23:42:31.981Z,0.56
2023-03-26T23:46:31.237Z,0.56
2023-03-26T23:50:30.946Z,0.56
2023-03-26T23:54:31.092Z,0.55
2023-03-26T23:58:31.291Z,0.55
